Homestead ARB Airport Homestead US
ICAO: KHST
IATA: HST
Category: Medium
Scheduled Services: No

Elevation: 5 ft
TransAlt. 18000 ft.

Airport Communications:
APP/DEP:123.8
ATIS:132.275
CLNC DEL:27.58
GCA:123.8
GND:121.75
93FS:138.025
PMSV METRO:31.865
COMD POST:25.21
PTD:37.22
TWR:133.45

KHST Zoom In..

Runways:

(A) RW 05 length 11200 ft width 300 ft
ILS 109.90 / hdg 52

(B) RW 23 length 11200 ft width 300 ft
---- / hdg 232

Location; KHST
Day. 23 / Time. 02.56 Zulu
* Altimeter: 29.94
* Temperature: 27° c. 80.6°f.
* Wind from: 000° Speed 00 kn.
Dewpoint: 25° c.
Visibility: 10 Statute Miles.
Clouds: Clear (automated report).

KHST 230256Z AUTO 00000KT 10SM CLR 27/25 A2994 RMK AO2 LTG DSNT SE-S SLP142 T02740254 52010 VISNO RWY24 $


Wind - Calm.

 
 
jpsmedia.com for Web Design worldairports.se 2018   terms of use